PWSweather.com
Personal Weather Stations
Station Observations
WARREN
Narre Warren , MelbourneAU

Narre Warren MelbourneAU

Lat: -38.0314269, Lon: 145.3160851

Elevation: 24

Station Type: Digiteck

http://www.aussiedownunder.net/

High Low Average
Temperature 69.6°F20.9°C 45.1°F7.3°C 55.3°F12.9°C
Dew Point 52.6°F11.4°C 38.9°F3.8°C 44.4°F6.9°C
Winds 5.4 mph 8.7 kmh Calm Calm 2.0 mph S3.2 kmh S
Wind Gusts 15.2 mph24.5 kmh -- 6.0 mph9.7 kmh
Humidity 100% 34% 71%
Pressure 29.99 in1015.6 mb 29.82 in1009.8 mb -
Precipitation 0.27 in6.9 mm - -
Hour Temp Dew Point Humidity Winds Wind Gusts Pressure Precip Precip Rate Daily Precip Total
12:00 AM 45.7°F7.6°C 43.5°F6.4°C 92% 0.7 mph WSW1.1 kmh WSW 3.8 mph6.1 kmh 29.83 in1010.2 mb 0.14 in3.6 mm 0.00 in0.0 mm 0.14 in3.6 mm
12:15 AM 46.0°F7.8°C 43.8°F6.6°C 92% 0.3 mph SSE0.5 kmh SSE 3.1 mph5.0 kmh 29.84 in1010.5 mb 0.07 in1.8 mm 0.00 in0.0 mm 0.14 in3.6 mm
12:30 AM 46.2°F7.9°C 44.3°F6.8°C 93% 1.6 mph SW2.6 kmh SW 5.4 mph8.7 kmh 29.84 in1010.5 mb 0.07 in1.8 mm 0.00 in0.0 mm 0.15 in3.8 mm
12:45 AM 45.5°F7.5°C 43.6°F6.4°C 93% 1.4 mph SSE2.3 kmh SSE 6.9 mph11.1 kmh 29.82 in1009.8 mb 0.07 in1.8 mm 0.00 in0.0 mm 0.17 in4.3 mm
01:00 AM 45.5°F7.5°C 43.6°F6.4°C 93% 0.4 mph SSW0.6 kmh SSW 4.5 mph7.2 kmh 29.83 in1010.2 mb 0.04 in1.0 mm 0.00 in0.0 mm 0.18 in4.6 mm
01:15 AM 45.9°F7.7°C 44.0°F6.7°C 93% Calm Calm 1.6 mph2.6 kmh 29.83 in1010.2 mb 0.04 in1.0 mm 0.00 in0.0 mm 0.18 in4.6 mm
01:30 AM 46.2°F7.9°C 44.6°F7.0°C 94% 1.1 mph W1.8 kmh W 3.8 mph6.1 kmh 29.83 in1010.2 mb 0.04 in1.0 mm 0.00 in0.0 mm 0.19 in4.8 mm
01:45 AM 46.2°F7.9°C 44.9°F7.2°C 95% 0.1 mph NW0.2 kmh NW 1.6 mph2.6 kmh 29.83 in1010.2 mb 0.02 in0.5 mm 0.00 in0.0 mm 0.19 in4.8 mm
02:00 AM 45.5°F7.5°C 44.2°F6.8°C 95% Calm Calm 0.7 mph1.1 kmh 29.83 in1010.2 mb 0.01 in0.3 mm 0.00 in0.0 mm 0.19 in4.8 mm
02:15 AM 45.3°F7.4°C 44.0°F6.7°C 95% 2.6 mph SW4.2 kmh SW 6.9 mph11.1 kmh 29.84 in1010.5 mb 0.06 in1.5 mm 0.20 in5.1 mm 0.24 in6.1 mm
02:30 AM 45.9°F7.7°C 44.8°F7.1°C 96% 2.1 mph WSW3.4 kmh WSW 6.9 mph11.1 kmh 29.84 in1010.5 mb 0.06 in1.5 mm 0.00 in0.0 mm 0.25 in6.4 mm
02:45 AM 45.7°F7.6°C 44.6°F7.0°C 96% 1.1 mph WNW1.8 kmh WNW 5.4 mph8.7 kmh 29.84 in1010.5 mb 0.06 in1.5 mm 0.00 in0.0 mm 0.25 in6.4 mm
03:00 AM 45.5°F7.5°C 44.4°F6.9°C 96% 0.1 mph WNW0.2 kmh WNW 2.2 mph3.5 kmh 29.84 in1010.5 mb 0.06 in1.5 mm 0.00 in0.0 mm 0.25 in6.4 mm
03:15 AM 45.5°F7.5°C 44.4°F6.9°C 96% Calm Calm 0.7 mph1.1 kmh 29.84 in1010.5 mb 0.01 in0.3 mm 0.00 in0.0 mm 0.25 in6.4 mm
03:30 AM 45.5°F7.5°C 44.7°F7.1°C 97% Calm Calm 0.7 mph1.1 kmh 29.84 in1010.5 mb 0.00 in0.0 mm 0.00 in0.0 mm 0.25 in6.4 mm
03:45 AM 45.1°F7.3°C 44.3°F6.8°C 97% 0.2 mph NNE0.3 kmh NNE 2.2 mph3.5 kmh 29.84 in1010.5 mb 0.00 in0.0 mm 0.00 in0.0 mm 0.25 in6.4 mm
04:00 AM 45.3°F7.4°C 44.5°F6.9°C 97% 0.8 mph N1.3 kmh N 3.1 mph5.0 kmh 29.84 in1010.5 mb 0.00 in0.0 mm 0.00 in0.0 mm 0.25 in6.4 mm
04:15 AM 45.9°F7.7°C 45.1°F7.3°C 97% 1.4 mph N2.3 kmh N 5.4 mph8.7 kmh 29.85 in1010.8 mb 0.00 in0.0 mm 0.00 in0.0 mm 0.25 in6.4 mm
04:30 AM 46.0°F7.8°C 45.2°F7.3°C 97% 0.9 mph N1.4 kmh N 4.5 mph7.2 kmh 29.85 in1010.8 mb 0.00 in0.0 mm 0.00 in0.0 mm 0.25 in6.4 mm
04:45 AM 46.2°F7.9°C 45.4°F7.4°C 97% 1.4 mph N2.3 kmh N 4.5 mph7.2 kmh 29.85 in1010.8 mb 0.00 in0.0 mm 0.00 in0.0 mm 0.25 in6.4 mm
05:00 AM 46.2°F7.9°C 45.4°F7.4°C 97% 0.8 mph N1.3 kmh N 4.5 mph7.2 kmh 29.86 in1011.2 mb 0.00 in0.0 mm 0.00 in0.0 mm 0.25 in6.4 mm
05:15 AM 46.2°F7.9°C 45.4°F7.4°C 97% 0.9 mph ENE1.4 kmh ENE 6.0 mph9.7 kmh 29.86 in1011.2 mb 0.00 in0.0 mm 0.00 in0.0 mm 0.25 in6.4 mm
05:30 AM 46.2°F7.9°C 45.4°F7.4°C 97% 0.6 mph NNE1.0 kmh NNE 4.5 mph7.2 kmh 29.87 in1011.5 mb 0.00 in0.0 mm 0.00 in0.0 mm 0.25 in6.4 mm
05:45 AM 46.8°F8.2°C 46.8°F8.2°C 100% 1.4 mph NE2.3 kmh NE 6.0 mph9.7 kmh 29.88 in1011.9 mb 0.00 in0.0 mm 0.00 in0.0 mm 0.25 in6.4 mm
06:00 AM 47.7°F8.7°C 47.7°F8.7°C 100% 1.3 mph NE2.1 kmh NE 4.5 mph7.2 kmh 29.89 in1012.2 mb 0.00 in0.0 mm 0.00 in0.0 mm 0.25 in6.4 mm
06:15 AM 47.1°F8.4°C 46.3°F7.9°C 97% 1.5 mph NE2.4 kmh NE 5.4 mph8.7 kmh 29.89 in1012.2 mb 0.00 in0.0 mm 0.00 in0.0 mm 0.25 in6.4 mm
06:30 AM 48.0°F8.9°C 46.9°F8.3°C 96% 1.3 mph N2.1 kmh N 6.0 mph9.7 kmh 29.89 in1012.2 mb 0.00 in0.0 mm 0.00 in0.0 mm 0.25 in6.4 mm
06:45 AM 49.3°F9.6°C 47.3°F8.5°C 93% 1.3 mph NW2.1 kmh NW 4.5 mph7.2 kmh 29.91 in1012.9 mb 0.00 in0.0 mm 0.00 in0.0 mm 0.25 in6.4 mm
07:00 AM 48.4°F9.1°C 46.2°F7.9°C 92% 0.8 mph N1.3 kmh N 4.5 mph7.2 kmh 29.91 in1012.9 mb 0.00 in0.0 mm 0.00 in0.0 mm 0.25 in6.4 mm
07:15 AM 48.4°F9.1°C 46.2°F7.9°C 92% 0.4 mph NNW0.6 kmh NNW 3.1 mph5.0 kmh 29.92 in1013.2 mb 0.01 in0.3 mm 0.04 in1.0 mm 0.26 in6.6 mm
07:30 AM 49.3°F9.6°C 47.3°F8.5°C 93% 1.1 mph N1.8 kmh N 4.5 mph7.2 kmh 29.92 in1013.2 mb 0.02 in0.5 mm 0.04 in1.0 mm 0.27 in6.9 mm
07:45 AM 53.1°F11.7°C 50.8°F10.4°C 92% 1.2 mph NW1.9 kmh NW 6.0 mph9.7 kmh 29.92 in1013.2 mb 0.02 in0.5 mm 0.00 in0.0 mm 0.27 in6.9 mm
08:00 AM 55.8°F13.2°C 52.6°F11.4°C 89% 1.4 mph WNW2.3 kmh WNW 4.5 mph7.2 kmh 29.93 in1013.5 mb 0.02 in0.5 mm 0.00 in0.0 mm 0.27 in6.9 mm
08:15 AM 56.3°F13.5°C 50.9°F10.5°C 82% 2.0 mph NW3.2 kmh NW 6.9 mph11.1 kmh 29.93 in1013.5 mb 0.01 in0.3 mm 0.00 in0.0 mm 0.27 in6.9 mm
08:30 AM 59.0°F15.0°C 51.1°F10.6°C 75% 1.1 mph W1.8 kmh W 4.5 mph7.2 kmh 29.93 in1013.5 mb 0.00 in0.0 mm 0.00 in0.0 mm 0.27 in6.9 mm
08:45 AM 58.3°F14.6°C 47.8°F8.8°C 68% 2.3 mph NW3.7 kmh NW 7.6 mph12.2 kmh 29.93 in1013.5 mb 0.00 in0.0 mm 0.00 in0.0 mm 0.27 in6.9 mm
09:00 AM 55.6°F13.1°C 45.6°F7.6°C 69% 3.4 mph WSW5.5 kmh WSW 7.6 mph12.2 kmh 29.93 in1013.5 mb 0.00 in0.0 mm 0.00 in0.0 mm 0.27 in6.9 mm
09:15 AM 57.7°F14.3°C 47.3°F8.5°C 68% 4.8 mph NW7.7 kmh NW 10.7 mph17.2 kmh 29.93 in1013.5 mb 0.00 in0.0 mm 0.00 in0.0 mm 0.27 in6.9 mm
09:30 AM 57.6°F14.2°C 45.9°F7.7°C 65% 4.4 mph W7.1 kmh W 12.1 mph19.5 kmh 29.94 in1013.9 mb 0.00 in0.0 mm 0.00 in0.0 mm 0.27 in6.9 mm
09:45 AM 58.8°F14.9°C 44.5°F6.9°C 59% 5.4 mph W8.7 kmh W 11.4 mph18.3 kmh 29.94 in1013.9 mb 0.00 in0.0 mm 0.00 in0.0 mm 0.27 in6.9 mm
10:00 AM 61.3°F16.3°C 44.6°F7.0°C 54% 5.3 mph NW8.5 kmh NW 15.2 mph24.5 kmh 29.94 in1013.9 mb 0.00 in0.0 mm 0.00 in0.0 mm 0.27 in6.9 mm
10:15 AM 61.5°F16.4°C 43.2°F6.2°C 51% 4.2 mph WSW6.8 kmh WSW 11.4 mph18.3 kmh 29.94 in1013.9 mb 0.00 in0.0 mm 0.00 in0.0 mm 0.27 in6.9 mm
10:30 AM 61.0°F16.1°C 42.7°F5.9°C 51% 4.9 mph W7.9 kmh W 11.4 mph18.3 kmh 29.95 in1014.2 mb 0.00 in0.0 mm 0.00 in0.0 mm 0.27 in6.9 mm
10:45 AM 60.6°F15.9°C 43.4°F6.3°C 53% 4.5 mph WSW7.2 kmh WSW 11.4 mph18.3 kmh 29.95 in1014.2 mb 0.00 in0.0 mm 0.00 in0.0 mm 0.27 in6.9 mm
11:00 AM 60.8°F16.0°C 41.0°F5.0°C 48% 4.7 mph WSW7.6 kmh WSW 10.7 mph17.2 kmh 29.95 in1014.2 mb 0.00 in0.0 mm 0.00 in0.0 mm 0.27 in6.9 mm
11:15 AM 62.6°F17.0°C 42.7°F5.9°C 48% 4.3 mph WSW6.9 kmh WSW 9.2 mph14.8 kmh 29.95 in1014.2 mb 0.00 in0.0 mm 0.00 in0.0 mm 0.27 in6.9 mm
11:30 AM 62.6°F17.0°C 39.2°F4.0°C 42% 4.9 mph W7.9 kmh W 11.4 mph18.3 kmh 29.95 in1014.2 mb 0.00 in0.0 mm 0.00 in0.0 mm 0.27 in6.9 mm
11:45 AM 64.2°F17.9°C 40.7°F4.8°C 42% 4.0 mph SW6.4 kmh SW 8.3 mph13.4 kmh 29.94 in1013.9 mb 0.00 in0.0 mm 0.00 in0.0 mm 0.27 in6.9 mm
12:00 PM 64.2°F17.9°C 40.7°F4.8°C 42% 4.2 mph W6.8 kmh W 9.8 mph15.8 kmh 29.94 in1013.9 mb 0.00 in0.0 mm 0.00 in0.0 mm 0.27 in6.9 mm
12:15 PM 63.5°F17.5°C 41.8°F5.4°C 45% 4.3 mph WNW6.9 kmh WNW 9.8 mph15.8 kmh 29.93 in1013.5 mb 0.00 in0.0 mm 0.00 in0.0 mm 0.27 in6.9 mm
12:30 PM 64.0°F17.8°C 40.5°F4.7°C 42% 4.2 mph WSW6.8 kmh WSW 13.0 mph20.9 kmh 29.93 in1013.5 mb 0.00 in0.0 mm 0.00 in0.0 mm 0.27 in6.9 mm
12:45 PM 63.7°F17.6°C 40.8°F4.9°C 43% 3.7 mph W6.0 kmh W 9.2 mph14.8 kmh 29.93 in1013.5 mb 0.00 in0.0 mm 0.00 in0.0 mm 0.27 in6.9 mm
01:00 PM 65.5°F18.6°C 40.5°F4.7°C 40% 3.7 mph SW6.0 kmh SW 9.2 mph14.8 kmh 29.92 in1013.2 mb 0.00 in0.0 mm 0.00 in0.0 mm 0.27 in6.9 mm
01:15 PM 67.5°F19.7°C 38.9°F3.8°C 35% 4.5 mph W7.2 kmh W 10.7 mph17.2 kmh 29.92 in1013.2 mb 0.00 in0.0 mm 0.00 in0.0 mm 0.27 in6.9 mm
01:30 PM 66.2°F19.0°C 39.2°F4.0°C 37% 4.6 mph NW7.4 kmh NW 14.5 mph23.3 kmh 29.93 in1013.5 mb 0.00 in0.0 mm 0.00 in0.0 mm 0.27 in6.9 mm
01:45 PM 67.8°F19.9°C 40.6°F4.8°C 37% 3.8 mph W6.1 kmh W 9.8 mph15.8 kmh 29.92 in1013.2 mb 0.00 in0.0 mm 0.00 in0.0 mm 0.27 in6.9 mm
02:00 PM 67.1°F19.5°C 42.0°F5.6°C 40% 4.0 mph NW6.4 kmh NW 9.2 mph14.8 kmh 29.92 in1013.2 mb 0.00 in0.0 mm 0.00 in0.0 mm 0.27 in6.9 mm
02:15 PM 68.9°F20.5°C 39.4°F4.1°C 34% 3.6 mph NW5.8 kmh NW 9.8 mph15.8 kmh 29.92 in1013.2 mb 0.00 in0.0 mm 0.00 in0.0 mm 0.27 in6.9 mm
02:30 PM 69.6°F20.9°C 42.2°F5.7°C 37% 3.0 mph WNW4.8 kmh WNW 8.3 mph13.4 kmh 29.91 in1012.9 mb 0.00 in0.0 mm 0.00 in0.0 mm 0.27 in6.9 mm
02:45 PM 67.5°F19.7°C 41.0°F5.0°C 38% 4.5 mph W7.2 kmh W 13.0 mph20.9 kmh 29.91 in1012.9 mb 0.00 in0.0 mm 0.00 in0.0 mm 0.27 in6.9 mm
03:00 PM 66.2°F19.0°C 41.8°F5.4°C 41% 4.6 mph WSW7.4 kmh WSW 12.1 mph19.5 kmh 29.91 in1012.9 mb 0.00 in0.0 mm 0.00 in0.0 mm 0.27 in6.9 mm
03:15 PM 66.9°F19.4°C 42.5°F5.8°C 41% 3.8 mph S6.1 kmh S 10.7 mph17.2 kmh 29.91 in1012.9 mb 0.00 in0.0 mm 0.00 in0.0 mm 0.27 in6.9 mm
03:30 PM 66.6°F19.2°C 43.4°F6.3°C 43% 2.8 mph SW4.5 kmh SW 9.2 mph14.8 kmh 29.91 in1012.9 mb 0.00 in0.0 mm 0.00 in0.0 mm 0.27 in6.9 mm
03:45 PM 65.3°F18.5°C 42.2°F5.7°C 43% 3.4 mph W5.5 kmh W 8.3 mph13.4 kmh 29.92 in1013.2 mb 0.00 in0.0 mm 0.00 in0.0 mm 0.27 in6.9 mm
04:00 PM 64.8°F18.2°C 42.9°F6.1°C 45% 3.6 mph WNW5.8 kmh WNW 8.3 mph13.4 kmh 29.92 in1013.2 mb 0.00 in0.0 mm 0.00 in0.0 mm 0.27 in6.9 mm
04:15 PM 63.3°F17.4°C 42.2°F5.7°C 46% 3.5 mph SSW5.6 kmh SSW 9.8 mph15.8 kmh 29.93 in1013.5 mb 0.00 in0.0 mm 0.00 in0.0 mm 0.27 in6.9 mm
04:30 PM 64.6°F18.1°C 42.8°F6.0°C 45% 2.9 mph SW4.7 kmh SW 6.9 mph11.1 kmh 29.93 in1013.5 mb 0.00 in0.0 mm 0.00 in0.0 mm 0.27 in6.9 mm
04:45 PM 62.4°F16.9°C 42.5°F5.8°C 48% 1.9 mph SSW3.1 kmh SSW 6.0 mph9.7 kmh 29.93 in1013.5 mb 0.00 in0.0 mm 0.00 in0.0 mm 0.27 in6.9 mm
05:00 PM 61.7°F16.5°C 43.4°F6.3°C 51% 1.4 mph S2.3 kmh S 5.4 mph8.7 kmh 29.93 in1013.5 mb 0.00 in0.0 mm 0.00 in0.0 mm 0.27 in6.9 mm
05:15 PM 61.7°F16.5°C 43.9°F6.6°C 52% 1.1 mph SSW1.8 kmh SSW 6.9 mph11.1 kmh 29.93 in1013.5 mb 0.00 in0.0 mm 0.00 in0.0 mm 0.27 in6.9 mm
05:30 PM 63.0°F17.2°C 44.6°F7.0°C 51% 1.0 mph S1.6 kmh S 4.5 mph7.2 kmh 29.94 in1013.9 mb 0.00 in0.0 mm 0.00 in0.0 mm 0.27 in6.9 mm
05:45 PM 63.1°F17.3°C 44.2°F6.8°C 50% 1.4 mph S2.3 kmh S 5.4 mph8.7 kmh 29.94 in1013.9 mb 0.00 in0.0 mm 0.00 in0.0 mm 0.27 in6.9 mm
06:00 PM 61.3°F16.3°C 44.1°F6.7°C 53% 0.3 mph ESE0.5 kmh ESE 3.8 mph6.1 kmh 29.94 in1013.9 mb 0.00 in0.0 mm 0.00 in0.0 mm 0.27 in6.9 mm
06:15 PM 59.2°F15.1°C 46.6°F8.1°C 63% 1.0 mph SE1.6 kmh SE 4.5 mph7.2 kmh 29.95 in1014.2 mb 0.00 in0.0 mm 0.00 in0.0 mm 0.27 in6.9 mm
06:30 PM 58.5°F14.7°C 46.8°F8.2°C 65% 0.3 mph SE0.5 kmh SE 3.1 mph5.0 kmh 29.96 in1014.6 mb 0.00 in0.0 mm 0.00 in0.0 mm 0.27 in6.9 mm
06:45 PM 57.4°F14.1°C 46.1°F7.8°C 66% 0.8 mph SE1.3 kmh SE 4.5 mph7.2 kmh 29.96 in1014.6 mb 0.00 in0.0 mm 0.00 in0.0 mm 0.27 in6.9 mm
07:00 PM 56.8°F13.8°C 46.0°F7.8°C 67% 0.1 mph SE0.2 kmh SE 1.6 mph2.6 kmh 29.97 in1014.9 mb 0.00 in0.0 mm 0.00 in0.0 mm 0.27 in6.9 mm
07:15 PM 56.3°F13.5°C 45.9°F7.7°C 68% 0.1 mph SE0.2 kmh SE 3.1 mph5.0 kmh 29.97 in1014.9 mb 0.00 in0.0 mm 0.00 in0.0 mm 0.27 in6.9 mm
07:30 PM 56.1°F13.4°C 46.1°F7.8°C 69% 0.1 mph E0.2 kmh E 1.6 mph2.6 kmh 29.98 in1015.2 mb 0.00 in0.0 mm 0.00 in0.0 mm 0.27 in6.9 mm
07:45 PM 55.4°F13.0°C 45.4°F7.4°C 69% Calm Calm 1.6 mph2.6 kmh 29.98 in1015.2 mb 0.00 in0.0 mm 0.00 in0.0 mm 0.27 in6.9 mm
08:00 PM 54.9°F12.7°C 45.6°F7.6°C 71% 0.1 mph ESE0.2 kmh ESE 2.2 mph3.5 kmh 29.98 in1015.2 mb 0.00 in0.0 mm 0.00 in0.0 mm 0.27 in6.9 mm
08:15 PM 54.7°F12.6°C 45.8°F7.7°C 72% Calm Calm 1.6 mph2.6 kmh 29.98 in1015.2 mb 0.00 in0.0 mm 0.00 in0.0 mm 0.27 in6.9 mm
08:30 PM 54.7°F12.6°C 45.8°F7.7°C 72% 0.2 mph E0.3 kmh E 3.1 mph5.0 kmh 29.99 in1015.6 mb 0.00 in0.0 mm 0.00 in0.0 mm 0.27 in6.9 mm
08:45 PM 54.1°F12.3°C 45.3°F7.4°C 72% 0.1 mph E0.2 kmh E 1.6 mph2.6 kmh 29.99 in1015.6 mb 0.00 in0.0 mm 0.00 in0.0 mm 0.27 in6.9 mm
09:00 PM 52.7°F11.5°C 44.3°F6.8°C 73% Calm Calm 0.7 mph1.1 kmh 29.99 in1015.6 mb 0.00 in0.0 mm 0.00 in0.0 mm 0.27 in6.9 mm
09:15 PM 52.3°F11.3°C 44.3°F6.8°C 74% Calm Calm 0.7 mph1.1 kmh 29.99 in1015.6 mb 0.00 in0.0 mm 0.00 in0.0 mm 0.27 in6.9 mm
09:30 PM 52.3°F11.3°C 44.7°F7.1°C 75% Calm Calm 0.7 mph1.1 kmh 29.98 in1015.2 mb 0.00 in0.0 mm 0.00 in0.0 mm 0.27 in6.9 mm
09:45 PM 51.3°F10.7°C 44.3°F6.8°C 77% Calm Calm 0.7 mph1.1 kmh 29.98 in1015.2 mb 0.00 in0.0 mm 0.00 in0.0 mm 0.27 in6.9 mm
10:00 PM 50.7°F10.4°C 44.5°F6.9°C 79% Calm Calm 0.7 mph1.1 kmh 29.99 in1015.6 mb 0.00 in0.0 mm 0.00 in0.0 mm 0.27 in6.9 mm
10:15 PM 50.7°F10.4°C 45.1°F7.3°C 81% 0.1 mph NE0.2 kmh NE 1.6 mph2.6 kmh 29.99 in1015.6 mb 0.00 in0.0 mm 0.00 in0.0 mm 0.27 in6.9 mm
10:30 PM 51.3°F10.7°C 46.0°F7.8°C 82% Calm Calm -- 29.99 in1015.6 mb 0.00 in0.0 mm 0.00 in0.0 mm 0.27 in6.9 mm
10:45 PM 51.8°F11.0°C 45.8°F7.7°C 80% Calm Calm -- 29.98 in1015.2 mb 0.00 in0.0 mm 0.00 in0.0 mm 0.27 in6.9 mm
11:00 PM 51.6°F10.9°C 46.0°F7.8°C 81% Calm Calm -- 29.98 in1015.2 mb 0.00 in0.0 mm 0.00 in0.0 mm 0.21 in5.3 mm
11:15 PM 51.1°F10.6°C 45.5°F7.5°C 81% Calm Calm -- 29.98 in1015.2 mb 0.00 in0.0 mm 0.00 in0.0 mm 0.21 in5.3 mm
11:30 PM 50.7°F10.4°C 45.4°F7.4°C 82% Calm Calm -- 29.98 in1015.2 mb 0.00 in0.0 mm 0.00 in0.0 mm 0.21 in5.3 mm
11:45 PM 50.2°F10.1°C 44.9°F7.2°C 82% Calm Calm -- 29.97 in1014.9 mb 0.00 in0.0 mm 0.00 in0.0 mm 0.21 in5.3 mm